sensor_id;sensor_type;location;lat;lon;timestamp;pressure;altitude;pressure_sealevel;temperature;humidity
34921;BME280;21128;50.016;20.002;2024-01-15T00:01:01;97080.75;;;0.81;100.00
34921;BME280;21128;50.016;20.002;2024-01-15T00:03:48;97077.23;;;0.81;100.00
34921;BME280;21128;50.016;20.002;2024-01-15T00:06:14;97071.88;;;0.82;100.00
34921;BME280;21128;50.016;20.002;2024-01-15T00:08:41;97070.49;;;0.82;100.00
34921;BME280;21128;50.016;20.002;2024-01-15T00:11:08;97069.57;;;0.82;100.00
34921;BME280;21128;50.016;20.002;2024-01-15T00:13:34;97064.16;;;0.83;100.00
34921;BME280;21128;50.016;20.002;2024-01-15T00:16:04;97066.35;;;0.84;100.00
34921;BME280;21128;50.016;20.002;2024-01-15T00:18:32;97054.25;;;0.84;100.00
34921;BME280;21128;50.016;20.002;2024-01-15T00:20:58;97051.11;;;0.85;100.00
34921;BME280;21128;50.016;20.002;2024-01-15T00:23:25;97040.16;;;0.87;100.00
34921;BME280;21128;50.016;20.002;2024-01-15T00:25:52;97036.70;;;0.86;100.00
34921;BME280;21128;50.016;20.002;2024-01-15T00:28:18;97035.81;;;0.87;100.00
34921;BME280;21128;50.016;20.002;2024-01-15T00:30:45;97038.29;;;0.86;100.00
34921;BME280;21128;50.016;20.002;2024-01-15T00:33:12;97037.91;;;0.87;99.98
34921;BME280;21128;50.016;20.002;2024-01-15T00:35:41;97034.64;;;0.86;100.00
34921;BME280;21128;50.016;20.002;2024-01-15T00:38:08;97035.32;;;0.87;99.98
34921;BME280;21128;50.016;20.002;2024-01-15T00:40:34;97034.93;;;0.87;100.00
34921;BME280;21128;50.016;20.002;2024-01-15T00:43:01;97034.38;;;0.88;100.00
34921;BME280;21128;50.016;20.002;2024-01-15T00:45:29;97031.73;;;0.88;100.00
34921;BME280;21128;50.016;20.002;2024-01-15T00:47:55;97028.17;;;0.88;99.73
34921;BME280;21128;50.016;20.002;2024-01-15T00:50:23;97023.63;;;0.88;100.00
34921;BME280;21128;50.016;20.002;2024-01-15T00:52:49;97020.90;;;0.88;99.89
34921;BME280;21128;50.016;20.002;2024-01-15T00:55:16;97022.86;;;0.87;99.80
34921;BME280;21128;50.016;20.002;2024-01-15T00:57:43;97020.73;;;0.86;99.39
34921;BME280;21128;50.016;20.002;2024-01-15T01:00:10;97018.23;;;0.84;99.84
34921;BME280;21128;50.016;20.002;2024-01-15T01:02:37;97018.58;;;0.84;99.58
34921;BME280;21128;50.016;20.002;2024-01-15T01:05:04;97014.80;;;0.84;99.41
34921;BME280;21128;50.016;20.002;2024-01-15T01:07:31;97008.43;;;0.84;99.47
34921;BME280;21128;50.016;20.002;2024-01-15T01:09:58;97009.02;;;0.83;98.81
34921;BME280;21128;50.016;20.002;2024-01-15T01:12:24;97011.91;;;0.83;98.87
34921;BME280;21128;50.016;20.002;2024-01-15T01:14:51;97011.33;;;0.84;98.98
34921;BME280;21128;50.016;20.002;2024-01-15T01:17:18;97003.07;;;0.84;99.27
34921;BME280;21128;50.016;20.002;2024-01-15T01:19:44;97006.00;;;0.84;98.98
34921;BME280;21128;50.016;20.002;2024-01-15T01:22:11;97002.24;;;0.84;98.64
34921;BME280;21128;50.016;20.002;2024-01-15T01:24:38;97000.58;;;0.83;98.53
34921;BME280;21128;50.016;20.002;2024-01-15T01:27:07;96995.76;;;0.83;98.54
34921;BME280;21128;50.016;20.002;2024-01-15T01:29:35;96989.91;;;0.83;98.34
34921;BME280;21128;50.016;20.002;2024-01-15T01:32:01;96987.95;;;0.83;98.26
34921;BME280;21128;50.016;20.002;2024-01-15T01:34:28;96986.91;;;0.83;97.56
34921;BME280;21128;50.016;20.002;2024-01-15T01:36:55;96984.09;;;0.84;97.85
34921;BME280;21128;50.016;20.002;2024-01-15T01:39:21;96980.47;;;0.84;98.02
34921;BME280;21128;50.016;20.002;2024-01-15T01:41:48;96977.45;;;0.86;97.68
34921;BME280;21128;50.016;20.002;2024-01-15T01:44:15;96966.45;;;0.87;97.81
34921;BME280;21128;50.016;20.002;2024-01-15T01:46:42;96962.19;;;0.89;97.07
34921;BME280;21128;50.016;20.002;2024-01-15T01:49:09;96964.66;;;0.90;96.81
34921;BME280;21128;50.016;20.002;2024-01-15T01:51:37;96960.98;;;0.91;97.01
34921;BME280;21128;50.016;20.002;2024-01-15T01:54:06;96949.20;;;0.92;96.72
34921;BME280;21128;50.016;20.002;2024-01-15T01:56:35;96945.10;;;0.93;96.60
34921;BME280;21128;50.016;20.002;2024-01-15T01:59:02;96940.05;;;0.94;96.18
34921;BME280;21128;50.016;20.002;2024-01-15T02:01:31;96937.63;;;0.94;96.04
34921;BME280;21128;50.016;20.002;2024-01-15T02:03:58;96935.20;;;0.94;95.34
34921;BME280;21128;50.016;20.002;2024-01-15T02:06:26;96931.15;;;0.95;95.43
34921;BME280;21128;50.016;20.002;2024-01-15T02:08:53;96925.64;;;0.95;95.85
34921;BME280;21128;50.016;20.002;2024-01-15T02:11:20;96916.58;;;0.94;95.98
34921;BME280;21128;50.016;20.002;2024-01-15T02:13:48;96917.21;;;0.95;95.93
34921;BME280;21128;50.016;20.002;2024-01-15T02:16:14;96920.29;;;0.95;95.73
34921;BME280;21128;50.016;20.002;2024-01-15T02:18:45;96922.33;;;0.96;96.10
34921;BME280;21128;50.016;20.002;2024-01-15T02:21:12;96917.08;;;0.95;96.01
34921;BME280;21128;50.016;20.002;2024-01-15T02:23:39;96906.23;;;0.94;96.31
34921;BME280;21128;50.016;20.002;2024-01-15T02:26:06;96906.31;;;0.93;96.39
34921;BME280;21128;50.016;20.002;2024-01-15T02:28:34;96905.09;;;0.91;96.15
34921;BME280;21128;50.016;20.002;2024-01-15T02:31:01;96899.58;;;0.91;96.20
34921;BME280;21128;50.016;20.002;2024-01-15T02:33:27;96898.02;;;0.90;96.24
34921;BME280;21128;50.016;20.002;2024-01-15T02:35:54;96895.98;;;0.89;96.05
34921;BME280;21128;50.016;20.002;2024-01-15T02:38:21;96892.23;;;0.89;96.18
34921;BME280;21128;50.016;20.002;2024-01-15T02:40:49;96889.27;;;0.89;96.09
34921;BME280;21128;50.016;20.002;2024-01-15T02:43:16;96887.04;;;0.89;96.13
34921;BME280;21128;50.016;20.002;2024-01-15T02:45:43;96886.36;;;0.89;95.76
34921;BME280;21128;50.016;20.002;2024-01-15T02:48:09;96883.06;;;0.89;96.12
34921;BME280;21128;50.016;20.002;2024-01-15T02:50:36;96879.71;;;0.88;96.02
34921;BME280;21128;50.016;20.002;2024-01-15T02:53:03;96878.38;;;0.87;96.27
34921;BME280;21128;50.016;20.002;2024-01-15T02:55:30;96879.27;;;0.85;96.00
34921;BME280;21128;50.016;20.002;2024-01-15T02:57:57;96873.48;;;0.83;95.80
34921;BME280;21128;50.016;20.002;2024-01-15T03:00:23;96867.81;;;0.81;95.48
34921;BME280;21128;50.016;20.002;2024-01-15T03:02:50;96867.84;;;0.81;95.59
34921;BME280;21128;50.016;20.002;2024-01-15T03:05:18;96862.58;;;0.80;95.26
34921;BME280;21128;50.016;20.002;2024-01-15T03:07:44;96857.01;;;0.79;95.19
34921;BME280;21128;50.016;20.002;2024-01-15T03:10:11;96858.96;;;0.78;95.19
34921;BME280;21128;50.016;20.002;2024-01-15T03:12:38;96848.70;;;0.77;94.94
34921;BME280;21128;50.016;20.002;2024-01-15T03:15:05;96849.17;;;0.78;95.14
34921;BME280;21128;50.016;20.002;2024-01-15T03:17:32;96852.98;;;0.78;94.72
34921;BME280;21128;50.016;20.002;2024-01-15T03:19:58;96842.66;;;0.77;94.79
34921;BME280;21128;50.016;20.002;2024-01-15T03:22:25;96840.55;;;0.78;95.00
34921;BME280;21128;50.016;20.002;2024-01-15T03:24:52;96840.48;;;0.77;94.83
34921;BME280;21128;50.016;20.002;2024-01-15T03:27:19;96845.20;;;0.76;94.66
34921;BME280;21128;50.016;20.002;2024-01-15T03:29:46;96842.83;;;0.75;94.94
34921;BME280;21128;50.016;20.002;2024-01-15T03:32:13;96846.83;;;0.75;95.25
34921;BME280;21128;50.016;20.002;2024-01-15T03:34:39;96838.84;;;0.74;95.35
34921;BME280;21128;50.016;20.002;2024-01-15T03:37:06;96849.14;;;0.72;94.78
34921;BME280;21128;50.016;20.002;2024-01-15T03:39:33;96845.75;;;0.71;94.98
34921;BME280;21128;50.016;20.002;2024-01-15T03:42:00;96846.80;;;0.71;95.16
34921;BME280;21128;50.016;20.002;2024-01-15T03:44:26;96835.39;;;0.70;95.17
34921;BME280;21128;50.016;20.002;2024-01-15T03:46:53;96826.41;;;0.70;95.19
34921;BME280;21128;50.016;20.002;2024-01-15T03:49:20;96815.23;;;0.70;95.41
34921;BME280;21128;50.016;20.002;2024-01-15T03:51:46;96810.80;;;0.69;95.35
34921;BME280;21128;50.016;20.002;2024-01-15T03:54:13;96807.23;;;0.69;95.07
34921;BME280;21128;50.016;20.002;2024-01-15T03:56:40;96803.13;;;0.68;95.42
34921;BME280;21128;50.016;20.002;2024-01-15T03:59:07;96804.35;;;0.68;95.27
34921;BME280;21128;50.016;20.002;2024-01-15T04:01:33;96796.96;;;0.68;94.98
34921;BME280;21128;50.016;20.002;2024-01-15T04:04:00;96797.29;;;0.68;95.01
34921;BME280;21128;50.016;20.002;2024-01-15T04:06:27;96800.39;;;0.68;95.03
34921;BME280;21128;50.016;20.002;2024-01-15T04:08:54;96792.12;;;0.68;95.13
34921;BME280;21128;50.016;20.002;2024-01-15T04:11:20;96791.77;;;0.68;95.31
34921;BME280;21128;50.016;20.002;2024-01-15T04:13:48;96787.09;;;0.68;95.16
34921;BME280;21128;50.016;20.002;2024-01-15T04:16:15;96785.52;;;0.69;94.86
34921;BME280;21128;50.016;20.002;2024-01-15T04:18:42;96781.77;;;0.70;94.80
34921;BME280;21128;50.016;20.002;2024-01-15T04:21:09;96775.83;;;0.71;94.99
34921;BME280;21128;50.016;20.002;2024-01-15T04:23:35;96769.73;;;0.72;94.84
34921;BME280;21128;50.016;20.002;2024-01-15T04:26:02;96766.81;;;0.71;94.90
34921;BME280;21128;50.016;20.002;2024-01-15T04:28:29;96768.54;;;0.72;94.61
34921;BME280;21128;50.016;20.002;2024-01-15T04:30:55;96761.76;;;0.72;94.20
34921;BME280;21128;50.016;20.002;2024-01-15T04:33:22;96763.88;;;0.72;94.64
34921;BME280;21128;50.016;20.002;2024-01-15T04:35:49;96766.61;;;0.70;94.56
34921;BME280;21128;50.016;20.002;2024-01-15T04:38:16;96766.49;;;0.69;94.60
34921;BME280;21128;50.016;20.002;2024-01-15T04:40:42;96759.64;;;0.69;94.38
34921;BME280;21128;50.016;20.002;2024-01-15T04:43:12;96764.80;;;0.69;94.30
34921;BME280;21128;50.016;20.002;2024-01-15T04:45:38;96761.16;;;0.69;94.10
34921;BME280;21128;50.016;20.002;2024-01-15T04:48:05;96758.66;;;0.70;93.81
34921;BME280;21128;50.016;20.002;2024-01-15T04:50:32;96760.97;;;0.71;93.89
34921;BME280;21128;50.016;20.002;2024-01-15T04:52:59;96764.98;;;0.73;93.60
34921;BME280;21128;50.016;20.002;2024-01-15T04:55:25;96762.63;;;0.74;93.82
34921;BME280;21128;50.016;20.002;2024-01-15T04:57:52;96750.71;;;0.74;93.33
34921;BME280;21128;50.016;20.002;2024-01-15T05:00:19;96755.20;;;0.76;93.65
34921;BME280;21128;50.016;20.002;2024-01-15T05:02:46;96753.46;;;0.77;93.17
34921;BME280;21128;50.016;20.002;2024-01-15T05:05:13;96745.65;;;0.77;93.64
34921;BME280;21128;50.016;20.002;2024-01-15T05:07:40;96744.89;;;0.78;93.05
34921;BME280;21128;50.016;20.002;2024-01-15T05:10:07;96734.05;;;0.79;92.79
34921;BME280;21128;50.016;20.002;2024-01-15T05:12:34;96742.65;;;0.82;93.02
34921;BME280;21128;50.016;20.002;2024-01-15T05:15:01;96743.73;;;0.83;93.15
34921;BME280;21128;50.016;20.002;2024-01-15T05:17:28;96742.05;;;0.83;93.26
34921;BME280;21128;50.016;20.002;2024-01-15T05:19:55;96745.34;;;0.82;93.20
34921;BME280;21128;50.016;20.002;2024-01-15T05:22:21;96744.45;;;0.83;92.68
34921;BME280;21128;50.016;20.002;2024-01-15T05:24:54;96746.27;;;0.84;92.60
34921;BME280;21128;50.016;20.002;2024-01-15T05:27:20;96739.70;;;0.84;92.91
34921;BME280;21128;50.016;20.002;2024-01-15T05:29:47;96737.86;;;0.83;92.91
34921;BME280;21128;50.016;20.002;2024-01-15T05:32:14;96746.67;;;0.83;92.52
34921;BME280;21128;50.016;20.002;2024-01-15T05:34:40;96743.02;;;0.83;92.79
34921;BME280;21128;50.016;20.002;2024-01-15T05:37:07;96751.06;;;0.84;92.56
34921;BME280;21128;50.016;20.002;2024-01-15T05:39:34;96748.61;;;0.85;92.52
34921;BME280;21128;50.016;20.002;2024-01-15T05:42:00;96754.46;;;0.85;92.75
34921;BME280;21128;50.016;20.002;2024-01-15T05:44:27;96751.23;;;0.84;92.57
34921;BME280;21128;50.016;20.002;2024-01-15T05:46:54;96751.71;;;0.85;92.97
34921;BME280;21128;50.016;20.002;2024-01-15T05:49:21;96743.45;;;0.85;93.32
34921;BME280;21128;50.016;20.002;2024-01-15T05:51:48;96740.73;;;0.84;93.27
34921;BME280;21128;50.016;20.002;2024-01-15T05:54:15;96730.27;;;0.83;93.32
34921;BME280;21128;50.016;20.002;2024-01-15T05:56:41;96732.39;;;0.83;93.29
34921;BME280;21128;50.016;20.002;2024-01-15T05:59:08;96733.16;;;0.82;93.27
34921;BME280;21128;50.016;20.002;2024-01-15T06:01:34;96730.23;;;0.82;93.18
34921;BME280;21128;50.016;20.002;2024-01-15T06:04:01;96729.27;;;0.81;93.19
34921;BME280;21128;50.016;20.002;2024-01-15T06:06:28;96732.45;;;0.80;93.36
34921;BME280;21128;50.016;20.002;2024-01-15T06:08:56;96736.52;;;0.79;93.24
34921;BME280;21128;50.016;20.002;2024-01-15T06:11:32;96737.88;;;0.79;93.30
34921;BME280;21128;50.016;20.002;2024-01-15T06:13:59;96740.97;;;0.79;93.30
34921;BME280;21128;50.016;20.002;2024-01-15T06:16:29;96737.19;;;0.79;93.62
34921;BME280;21128;50.016;20.002;2024-01-15T06:18:55;96741.35;;;0.79;93.81
34921;BME280;21128;50.016;20.002;2024-01-15T06:21:22;96726.88;;;0.77;94.11
34921;BME280;21128;50.016;20.002;2024-01-15T06:23:49;96735.71;;;0.76;94.00
34921;BME280;21128;50.016;20.002;2024-01-15T06:26:16;96740.02;;;0.76;94.21
34921;BME280;21128;50.016;20.002;2024-01-15T06:28:42;96745.59;;;0.78;94.62
34921;BME280;21128;50.016;20.002;2024-01-15T06:31:09;96749.24;;;0.77;94.44
34921;BME280;21128;50.016;20.002;2024-01-15T06:33:36;96744.61;;;0.77;94.57
34921;BME280;21128;50.016;20.002;2024-01-15T06:36:03;96746.17;;;0.77;94.56
34921;BME280;21128;50.016;20.002;2024-01-15T06:38:29;96750.96;;;0.78;94.68
34921;BME280;21128;50.016;20.002;2024-01-15T06:40:56;96739.83;;;0.77;94.69
34921;BME280;21128;50.016;20.002;2024-01-15T06:43:23;96738.27;;;0.77;94.57
34921;BME280;21128;50.016;20.002;2024-01-15T06:45:50;96738.16;;;0.78;94.20
34921;BME280;21128;50.016;20.002;2024-01-15T06:48:16;96729.65;;;0.80;94.41
34921;BME280;21128;50.016;20.002;2024-01-15T06:50:43;96720.14;;;0.81;94.12
34921;BME280;21128;50.016;20.002;2024-01-15T06:53:10;96727.80;;;0.82;94.25
34921;BME280;21128;50.016;20.002;2024-01-15T06:55:38;96733.04;;;0.83;94.08
34921;BME280;21128;50.016;20.002;2024-01-15T06:58:05;96737.65;;;0.84;93.90
34921;BME280;21128;50.016;20.002;2024-01-15T07:00:32;96742.35;;;0.86;93.82
34921;BME280;21128;50.016;20.002;2024-01-15T07:02:59;96744.34;;;0.87;93.80
34921;BME280;21128;50.016;20.002;2024-01-15T07:05:26;96742.73;;;0.87;93.94
34921;BME280;21128;50.016;20.002;2024-01-15T07:07:53;96745.94;;;0.88;93.94
34921;BME280;21128;50.016;20.002;2024-01-15T07:10:20;96745.29;;;0.88;93.85
34921;BME280;21128;50.016;20.002;2024-01-15T07:12:46;96746.23;;;0.88;93.96
34921;BME280;21128;50.016;20.002;2024-01-15T07:15:14;96749.98;;;0.89;94.00
34921;BME280;21128;50.016;20.002;2024-01-15T07:17:41;96758.63;;;0.89;93.97
34921;BME280;21128;50.016;20.002;2024-01-15T07:20:09;96752.06;;;0.89;93.98
34921;BME280;21128;50.016;20.002;2024-01-15T07:22:36;96750.51;;;0.89;94.09
34921;BME280;21128;50.016;20.002;2024-01-15T07:25:04;96753.40;;;0.90;93.94
34921;BME280;21128;50.016;20.002;2024-01-15T07:27:31;96753.25;;;0.91;94.25
34921;BME280;21128;50.016;20.002;2024-01-15T07:30:02;96757.77;;;0.93;94.29
34921;BME280;21128;50.016;20.002;2024-01-15T07:32:30;96755.36;;;0.93;94.01
34921;BME280;21128;50.016;20.002;2024-01-15T07:34:58;96757.48;;;0.94;94.33
34921;BME280;21128;50.016;20.002;2024-01-15T07:37:26;96758.99;;;0.96;94.37
34921;BME280;21128;50.016;20.002;2024-01-15T07:39:52;96764.38;;;0.98;94.52
34921;BME280;21128;50.016;20.002;2024-01-15T07:42:19;96776.14;;;0.99;94.49
34921;BME280;21128;50.016;20.002;2024-01-15T07:44:46;96782.11;;;1.00;94.70
34921;BME280;21128;50.016;20.002;2024-01-15T07:47:13;96782.73;;;1.01;94.53
34921;BME280;21128;50.016;20.002;2024-01-15T07:49:40;96786.81;;;1.02;94.67
34921;BME280;21128;50.016;20.002;2024-01-15T07:52:07;96791.49;;;1.03;94.57
34921;BME280;21128;50.016;20.002;2024-01-15T07:54:34;96788.95;;;1.05;94.69
34921;BME280;21128;50.016;20.002;2024-01-15T07:57:01;96792.83;;;1.06;94.69
34921;BME280;21128;50.016;20.002;2024-01-15T07:59:31;96790.57;;;1.06;94.67
34921;BME280;21128;50.016;20.002;2024-01-15T08:01:59;96787.08;;;1.06;94.80
34921;BME280;21128;50.016;20.002;2024-01-15T08:04:26;96789.57;;;1.09;94.99
34921;BME280;21128;50.016;20.002;2024-01-15T08:06:52;96791.67;;;1.09;94.70
34921;BME280;21128;50.016;20.002;2024-01-15T08:09:19;96790.63;;;1.09;95.00
34921;BME280;21128;50.016;20.002;2024-01-15T08:11:46;96795.48;;;1.11;95.03
34921;BME280;21128;50.016;20.002;2024-01-15T08:14:13;96801.04;;;1.12;94.80
34921;BME280;21128;50.016;20.002;2024-01-15T08:16:40;96793.39;;;1.15;94.84
34921;BME280;21128;50.016;20.002;2024-01-15T08:19:07;96793.25;;;1.19;95.00
34921;BME280;21128;50.016;20.002;2024-01-15T08:21:34;96793.08;;;1.22;95.09
34921;BME280;21128;50.016;20.002;2024-01-15T08:24:02;96789.55;;;1.27;95.38
34921;BME280;21128;50.016;20.002;2024-01-15T08:26:29;96797.17;;;1.29;95.15
34921;BME280;21128;50.016;20.002;2024-01-15T08:28:56;96807.49;;;1.31;95.42
34921;BME280;21128;50.016;20.002;2024-01-15T08:31:23;96810.77;;;1.29;96.02
34921;BME280;21128;50.016;20.002;2024-01-15T08:33:50;96812.09;;;1.22;97.77
34921;BME280;21128;50.016;20.002;2024-01-15T08:36:17;96810.11;;;1.17;98.27
34921;BME280;21128;50.016;20.002;2024-01-15T08:38:44;96810.56;;;1.06;100.00
34921;BME280;21128;50.016;20.002;2024-01-15T08:41:11;96811.98;;;0.92;100.00
34921;BME280;21128;50.016;20.002;2024-01-15T08:43:38;96809.45;;;0.81;100.00
34921;BME280;21128;50.016;20.002;2024-01-15T08:46:05;96807.91;;;0.77;100.00
34921;BME280;21128;50.016;20.002;2024-01-15T08:48:32;96806.55;;;0.74;100.00
34921;BME280;21128;50.016;20.002;2024-01-15T08:50:58;96804.67;;;0.74;100.00
34921;BME280;21128;50.016;20.002;2024-01-15T08:53:25;96806.52;;;0.77;100.00
34921;BME280;21128;50.016;20.002;2024-01-15T08:55:55;96805.19;;;0.80;100.00
34921;BME280;21128;50.016;20.002;2024-01-15T08:58:23;96805.27;;;0.87;100.00
34921;BME280;21128;50.016;20.002;2024-01-15T09:00:51;96806.66;;;0.95;100.00
34921;BME280;21128;50.016;20.002;2024-01-15T09:03:18;96796.23;;;1.02;100.00
34921;BME280;21128;50.016;20.002;2024-01-15T09:05:45;96803.10;;;1.10;100.00
34921;BME280;21128;50.016;20.002;2024-01-15T09:08:12;96800.80;;;1.21;100.00
34921;BME280;21128;50.016;20.002;2024-01-15T09:10:38;96809.84;;;1.32;100.00
34921;BME280;21128;50.016;20.002;2024-01-15T09:13:05;96809.85;;;1.42;100.00
34921;BME280;21128;50.016;20.002;2024-01-15T09:15:32;96812.69;;;1.49;99.96
34921;BME280;21128;50.016;20.002;2024-01-15T09:17:59;96813.42;;;1.52;99.60
34921;BME280;21128;50.016;20.002;2024-01-15T09:20:26;96819.29;;;1.60;99.63
34921;BME280;21128;50.016;20.002;2024-01-15T09:22:55;96820.41;;;1.65;99.10
34921;BME280;21128;50.016;20.002;2024-01-15T09:25:22;96825.34;;;1.67;98.40
34921;BME280;21128;50.016;20.002;2024-01-15T09:27:49;96820.05;;;1.67;98.10
34921;BME280;21128;50.016;20.002;2024-01-15T09:30:16;96819.08;;;1.64;97.77
34921;BME280;21128;50.016;20.002;2024-01-15T09:32:42;96822.68;;;1.61;97.39
34921;BME280;21128;50.016;20.002;2024-01-15T09:35:10;96824.67;;;1.60;97.13
34921;BME280;21128;50.016;20.002;2024-01-15T09:37:39;96826.64;;;1.57;96.23
34921;BME280;21128;50.016;20.002;2024-01-15T09:40:08;96824.57;;;1.51;95.35
34921;BME280;21128;50.016;20.002;2024-01-15T09:42:38;96824.33;;;1.48;95.71
34921;BME280;21128;50.016;20.002;2024-01-15T09:45:05;96826.32;;;1.47;95.80
34921;BME280;21128;50.016;20.002;2024-01-15T09:47:32;96832.01;;;1.45;95.06
34921;BME280;21128;50.016;20.002;2024-01-15T09:49:59;96827.14;;;1.49;95.25
34921;BME280;21128;50.016;20.002;2024-01-15T09:52:26;96820.43;;;1.51;94.82
34921;BME280;21128;50.016;20.002;2024-01-15T09:54:53;96820.34;;;1.44;94.66
34921;BME280;21128;50.016;20.002;2024-01-15T09:57:20;96826.64;;;1.33;94.58
34921;BME280;21128;50.016;20.002;2024-01-15T09:59:48;96828.67;;;1.24;95.00
34921;BME280;21128;50.016;20.002;2024-01-15T10:02:15;96835.39;;;1.10;96.69
34921;BME280;21128;50.016;20.002;2024-01-15T10:04:45;96838.23;;;0.95;98.14
34921;BME280;21128;50.016;20.002;2024-01-15T10:07:16;96837.70;;;0.81;99.75
34921;BME280;21128;50.016;20.002;2024-01-15T10:09:46;96832.14;;;0.77;100.00
34921;BME280;21128;50.016;20.002;2024-01-15T10:12:13;96823.92;;;0.81;100.00
34921;BME280;21128;50.016;20.002;2024-01-15T10:14:41;96819.21;;;0.92;100.00
34921;BME280;21128;50.016;20.002;2024-01-15T10:17:15;96822.34;;;0.97;100.00
34921;BME280;21128;50.016;20.002;2024-01-15T10:19:42;96822.31;;;0.98;100.00
34921;BME280;21128;50.016;20.002;2024-01-15T10:22:09;96828.59;;;0.93;99.03
34921;BME280;21128;50.016;20.002;2024-01-15T10:24:36;96824.60;;;0.89;98.46
34921;BME280;21128;50.016;20.002;2024-01-15T10:27:05;96822.20;;;0.85;98.21
34921;BME280;21128;50.016;20.002;2024-01-15T10:29:33;96821.20;;;0.84;97.74
34921;BME280;21128;50.016;20.002;2024-01-15T10:32:00;96822.36;;;0.87;97.79
34921;BME280;21128;50.016;20.002;2024-01-15T10:34:27;96816.66;;;0.88;97.65
34921;BME280;21128;50.016;20.002;2024-01-15T10:36:54;96817.90;;;0.87;97.16
34921;BME280;21128;50.016;20.002;2024-01-15T10:39:24;96812.57;;;0.87;96.55
34921;BME280;21128;50.016;20.002;2024-01-15T10:41:51;96807.97;;;0.88;96.32
34921;BME280;21128;50.016;20.002;2024-01-15T10:44:18;96802.31;;;0.92;96.29
34921;BME280;21128;50.016;20.002;2024-01-15T10:46:46;96807.05;;;0.95;95.83
34921;BME280;21128;50.016;20.002;2024-01-15T10:49:13;96806.88;;;0.97;95.34
34921;BME280;21128;50.016;20.002;2024-01-15T10:51:41;96798.00;;;0.98;95.16
34921;BME280;21128;50.016;20.002;2024-01-15T10:54:09;96801.54;;;0.99;94.57
34921;BME280;21128;50.016;20.002;2024-01-15T10:56:39;96804.72;;;1.04;94.89
34921;BME280;21128;50.016;20.002;2024-01-15T10:59:06;96801.56;;;1.08;93.55
34921;BME280;21128;50.016;20.002;2024-01-15T11:01:37;96806.98;;;1.09;92.91
34921;BME280;21128;50.016;20.002;2024-01-15T11:04:04;96799.70;;;1.10;92.67
34921;BME280;21128;50.016;20.002;2024-01-15T11:06:42;96807.08;;;1.14;92.71
34921;BME280;21128;50.016;20.002;2024-01-15T11:09:09;96796.27;;;1.18;92.87
34921;BME280;21128;50.016;20.002;2024-01-15T11:11:39;96804.63;;;1.19;92.07
34921;BME280;21128;50.016;20.002;2024-01-15T11:14:06;96792.72;;;1.19;92.07
34921;BME280;21128;50.016;20.002;2024-01-15T11:16:58;96795.42;;;1.19;91.57
34921;BME280;21128;50.016;20.002;2024-01-15T11:19:48;96796.60;;;1.26;90.82
34921;BME280;21128;50.016;20.002;2024-01-15T11:24:56;96798.98;;;1.38;90.13
34921;BME280;21128;50.016;20.002;2024-01-15T11:27:43;96795.90;;;1.43;90.04
34921;BME280;21128;50.016;20.002;2024-01-15T11:30:14;96795.19;;;1.46;88.81
34921;BME280;21128;50.016;20.002;2024-01-15T11:32:41;96804.23;;;1.41;88.22
34921;BME280;21128;50.016;20.002;2024-01-15T11:35:09;96800.33;;;1.34;88.61
34921;BME280;21128;50.016;20.002;2024-01-15T11:40:22;96794.19;;;1.35;88.37
34921;BME280;21128;50.016;20.002;2024-01-15T11:42:49;96795.92;;;1.37;88.45
34921;BME280;21128;50.016;20.002;2024-01-15T11:45:19;96782.76;;;1.34;89.15
34921;BME280;21128;50.016;20.002;2024-01-15T11:50:50;96785.89;;;1.18;91.98
34921;BME280;21128;50.016;20.002;2024-01-15T11:55:56;96787.64;;;1.31;90.67
34921;BME280;21128;50.016;20.002;2024-01-15T11:58:24;96798.42;;;1.34;90.25
34921;BME280;21128;50.016;20.002;2024-01-15T12:00:52;96801.91;;;1.28;89.31
34921;BME280;21128;50.016;20.002;2024-01-15T12:03:23;96806.48;;;1.25;89.41
34921;BME280;21128;50.016;20.002;2024-01-15T12:05:52;96803.31;;;1.20;88.93
34921;BME280;21128;50.016;20.002;2024-01-15T12:08:22;96805.16;;;1.10;88.37
34921;BME280;21128;50.016;20.002;2024-01-15T12:10:53;96796.23;;;1.00;89.74
34921;BME280;21128;50.016;20.002;2024-01-15T12:13:20;96793.87;;;0.96;89.38
34921;BME280;21128;50.016;20.002;2024-01-15T12:15:47;96797.27;;;0.96;90.23
34921;BME280;21128;50.016;20.002;2024-01-15T12:18:17;96807.64;;;0.96;88.84
34921;BME280;21128;50.016;20.002;2024-01-15T12:20:45;96803.05;;;0.93;88.66
34921;BME280;21128;50.016;20.002;2024-01-15T12:23:16;96804.50;;;0.93;88.25
34921;BME280;21128;50.016;20.002;2024-01-15T12:25:43;96789.07;;;0.94;88.13
34921;BME280;21128;50.016;20.002;2024-01-15T12:28:10;96793.73;;;1.01;88.44
34921;BME280;21128;50.016;20.002;2024-01-15T12:30:37;96788.75;;;1.07;88.45
34921;BME280;21128;50.016;20.002;2024-01-15T12:33:05;96793.98;;;1.12;87.87
34921;BME280;21128;50.016;20.002;2024-01-15T12:35:35;96802.63;;;1.10;87.35
34921;BME280;21128;50.016;20.002;2024-01-15T12:38:03;96795.59;;;1.10;87.59
34921;BME280;21128;50.016;20.002;2024-01-15T12:40:31;96805.55;;;1.10;87.09
34921;BME280;21128;50.016;20.002;2024-01-15T12:43:00;96805.35;;;1.06;86.89
34921;BME280;21128;50.016;20.002;2024-01-15T12:45:27;96802.43;;;1.04;86.81
34921;BME280;21128;50.016;20.002;2024-01-15T12:47:54;96800.12;;;1.03;86.60
34921;BME280;21128;50.016;20.002;2024-01-15T12:50:25;96809.19;;;1.04;86.66
34921;BME280;21128;50.016;20.002;2024-01-15T12:52:53;96807.11;;;1.06;87.23
34921;BME280;21128;50.016;20.002;2024-01-15T12:55:19;96811.33;;;1.11;87.13
34921;BME280;21128;50.016;20.002;2024-01-15T12:57:46;96813.43;;;1.13;86.89
34921;BME280;21128;50.016;20.002;2024-01-15T13:00:13;96811.98;;;1.16;86.90
34921;BME280;21128;50.016;20.002;2024-01-15T13:02:42;96809.45;;;1.17;86.61
34921;BME280;21128;50.016;20.002;2024-01-15T13:05:10;96805.63;;;1.17;86.53
34921;BME280;21128;50.016;20.002;2024-01-15T13:07:39;96798.39;;;1.17;86.44
34921;BME280;21128;50.016;20.002;2024-01-15T13:10:07;96793.84;;;1.18;86.13
34921;BME280;21128;50.016;20.002;2024-01-15T13:12:36;96799.21;;;1.18;85.70